Time;durP1;ratioP1;P1;durP2;ratioP2;P2;SDS_P1;SDS_P2;PMS_P1;PMS_P2;Temp;Humidity;BMP_temperature;BMP_pressure;BME280_temperature;BME280_humidity;BME280_pressure;Samples;Min_cycle;Max_cycle;Signal;HPM_P1;HPM_P2
2022/09/05 00:02:03;;;;;;;6.82;5.55;;;;;;;18.45;71.03;94503.50;5004945;28;20030;-80
2022/09/05 00:05:05;;;;;;;9.70;5.88;;;;;;;18.42;70.72;94504.22;5005079;28;20033;-80
2022/09/05 00:07:58;;;;;;;13.05;7.38;;;;;;;18.33;70.89;94517.06;5004987;28;20026;-80
2022/09/05 00:10:33;;;;;;;13.27;6.97;;;;;;;18.23;70.82;94511.03;5004808;28;20022;-81
2022/09/05 00:13:02;;;;;;;11.95;6.88;;;;;;;18.19;70.79;94510.16;5004887;28;20031;-80
2022/09/05 00:15:53;;;;;;;7.40;6.18;;;;;;;18.19;70.88;94504.75;5004807;28;20069;-81
2022/09/05 00:18:28;;;;;;;8.55;6.80;;;;;;;18.18;70.85;94508.59;5004987;28;20049;-81
2022/09/05 00:21:03;;;;;;;11.43;7.40;;;;;;;18.15;71.14;94511.19;5004696;28;20026;-81
2022/09/05 00:23:55;;;;;;;16.17;7.00;;;;;;;18.14;71.38;94513.13;5004605;28;20097;-81
2022/09/05 00:26:36;;;;;;;10.40;7.63;;;;;;;18.06;71.71;94527.56;5004796;28;20029;-81
2022/09/05 00:29:41;;;;;;;10.85;8.13;;;;;;;18.06;71.76;94521.38;5004649;28;20375;-81
2022/09/05 00:33:02;;;;;;;9.65;7.50;;;;;;;18.04;72.25;94519.78;5004280;28;20027;-80
2022/09/05 00:35:34;;;;;;;11.32;8.82;;;;;;;17.99;72.72;94511.97;4944517;29;20098;-81
2022/09/05 00:38:15;;;;;;;10.70;8.48;;;;;;;18.00;72.72;94518.13;4944544;29;20071;-81
2022/09/05 00:41:01;;;;;;;14.25;8.32;;;;;;;17.97;72.51;94524.19;4981176;28;20054;-82
2022/09/05 00:43:40;;;;;;;12.23;9.10;;;;;;;17.88;71.88;94523.59;5004207;28;20104;-81
2022/09/05 00:46:12;;;;;;;12.20;9.10;;;;;;;17.86;72.14;94528.53;5004257;28;20046;-81
2022/09/05 00:48:43;;;;;;;;;;;;;;;17.81;71.86;94533.00;5004777;28;20022;-81
2022/09/05 00:51:45;;;;;;;10.50;8.77;;;;;;;17.79;72.30;94527.19;5004036;28;19906;-81
2022/09/05 00:54:39;;;;;;;18.98;8.98;;;;;;;17.79;71.90;94524.47;5004022;28;20036;-81
2022/09/05 00:57:05;;;;;;;13.60;9.75;;;;;;;17.80;71.55;94534.13;4968197;28;20041;-81
2022/09/05 00:59:54;;;;;;;14.73;9.07;;;;;;;17.80;71.73;94531.44;5003983;28;20026;-82
2022/09/05 01:02:55;;;;;;;12.65;10.10;;;;;;;17.83;71.65;94530.00;5019146;28;20065;-81
2022/09/05 01:05:45;;;;;;;11.23;9.18;;;;;;;17.80;71.59;94536.03;5013739;28;20225;-81
2022/09/05 01:08:29;;;;;;;9.38;7.63;;;;;;;17.75;71.44;94531.69;5003763;28;20034;-81
2022/09/05 01:11:09;;;;;;;15.45;8.60;;;;;;;17.74;71.54;94532.00;5003046;28;20056;-81
2022/09/05 01:13:46;;;;;;;11.60;7.82;;;;;;;17.70;71.15;94534.59;5003508;28;20343;-81
2022/09/05 01:16:21;;;;;;;13.50;9.05;;;;;;;17.69;71.31;94546.53;5003625;28;20316;-81
2022/09/05 01:19:18;;;;;;;12.57;8.38;;;;;;;17.68;71.88;94536.84;5003730;28;20045;-81
2022/09/05 01:21:49;;;;;;;11.50;8.43;;;;;;;17.71;71.54;94543.47;5003559;28;20028;-80
2022/09/05 01:24:31;;;;;;;10.73;8.83;;;;;;;17.71;71.34;94544.28;5003523;28;20022;-81
2022/09/05 01:27:15;;;;;;;10.70;8.52;;;;;;;17.71;71.02;94544.28;5003317;28;20015;-81
2022/09/05 01:29:58;;;;;;;9.02;7.75;;;;;;;17.73;70.92;94538.56;5003529;28;20030;-81
2022/09/05 01:32:41;;;;;;;10.60;7.85;;;;;;;17.73;70.62;94535.84;5003115;28;20036;-80
2022/09/05 01:35:25;;;;;;;33.78;10.50;;;;;;;17.70;70.63;94526.50;5003073;28;20037;-81
2022/09/05 01:38:20;;;;;;;10.30;7.97;;;;;;;17.70;70.54;94526.50;5003292;28;20097;-81
2022/09/05 01:41:04;;;;;;;9.20;7.72;;;;;;;17.58;70.85;94535.41;5003222;28;20045;-81
2022/09/05 01:44:00;;;;;;;10.73;7.80;;;;;;;17.57;71.24;94527.69;5003222;28;20034;-81
2022/09/05 01:46:37;;;;;;;9.57;7.95;;;;;;;17.56;71.00;94524.19;5003220;28;20077;-81
2022/09/05 01:49:19;;;;;;;11.30;8.30;;;;;;;17.55;71.62;94516.47;5003304;28;20033;-82
2022/09/05 01:51:47;;;;;;;10.57;8.43;;;;;;;17.51;71.54;94529.06;5003255;28;20097;-81
2022/09/05 01:54:25;;;;;;;9.65;7.90;;;;;;;17.48;71.59;94527.03;5002960;28;20098;-81
2022/09/05 01:57:25;;;;;;;13.75;8.45;;;;;;;17.49;71.33;94525.91;5003102;28;20064;-81
2022/09/05 02:00:03;;;;;;;10.65;8.35;;;;;;;17.52;71.36;94520.59;5003729;28;20061;-81
2022/09/05 02:03:00;;;;;;;10.40;7.85;;;;;;;17.50;70.87;94532.84;5003029;28;20026;-82
2022/09/05 02:05:56;;;;;;;8.98;7.43;;;;;;;17.50;70.81;94530.16;5001841;28;20038;-82
2022/09/05 02:08:59;;;;;;;8.88;7.50;;;;;;;17.53;70.73;94540.28;5003023;28;20157;-81
2022/09/05 02:11:48;;;;;;;9.63;7.40;;;;;;;17.50;70.65;94535.56;5003162;28;20241;-82
2022/09/05 02:14:38;;;;;;;10.80;7.65;;;;;;;17.52;70.30;94541.38;5003048;28;20060;-81
2022/09/05 02:17:40;;;;;;;12.63;8.15;;;;;;;17.52;70.64;94541.38;5002950;28;20264;-82
2022/09/05 02:20:06;;;;;;;13.90;7.70;;;;;;;17.52;70.40;94531.38;5003003;28;20033;-82
2022/09/05 02:22:50;;;;;;;10.73;7.80;;;;;;;17.50;70.43;94522.84;5006422;28;20244;-81
2022/09/05 02:25:19;;;;;;;14.48;7.60;;;;;;;17.52;70.46;94525.22;5006874;28;20026;-82
2022/09/05 02:27:51;;;;;;;9.65;6.97;;;;;;;17.53;70.87;94524.09;5006939;28;20019;-82
2022/09/05 02:30:20;;;;;;;12.32;7.72;;;;;;;17.50;70.68;94524.78;5007085;28;20382;-81
2022/09/05 02:33:13;;;;;;;10.95;7.43;;;;;;;17.56;70.36;94528.81;5007021;28;20049;-81
2022/09/05 02:35:47;;;;;;;10.13;7.82;;;;;;;17.59;70.08;94533.53;5006730;28;20045;-81
2022/09/05 02:38:42;;;;;;;10.55;7.82;;;;;;;17.58;69.96;94534.63;5006533;28;20045;-82
2022/09/05 02:41:25;;;;;;;10.85;7.47;;;;;;;17.57;70.18;94533.09;5005448;28;20030;-81
2022/09/05 02:43:58;;;;;;;11.95;7.20;;;;;;;17.56;69.80;94528.81;5006648;28;20057;-82
2022/09/05 02:46:59;;;;;;;12.63;6.88;;;;;;;17.54;69.40;94526.44;5006635;28;20042;-81
2022/09/05 02:49:45;;;;;;;13.80;6.47;;;;;;;17.55;69.69;94529.94;4993408;28;20034;-81
2022/09/05 02:52:14;;;;;;;8.20;5.85;;;;;;;17.57;68.95;94538.47;5021589;28;20030;-81
2022/09/05 02:54:43;;;;;;;10.85;5.80;;;;;;;17.58;68.86;94530.03;5006314;28;20022;-81
2022/09/05 02:57:19;;;;;;;10.23;5.70;;;;;;;17.59;68.72;94538.91;5006328;28;20066;-81
2022/09/05 02:59:57;;;;;;;8.73;5.57;;;;;;;17.62;68.85;94538.22;5006174;28;20037;-81
2022/09/05 03:02:28;;;;;;;7.88;5.72;;;;;;;17.61;69.02;94542.84;5006244;28;20030;-81
2022/09/05 03:05:13;;;;;;;8.18;5.43;;;;;;;17.60;68.66;94541.25;5006027;28;20045;-81
2022/09/05 03:07:57;;;;;;;7.82;5.95;;;;;;;17.61;68.81;94540.13;5006101;28;20014;-81
2022/09/05 03:10:34;;;;;;;8.52;5.57;;;;;;;17.67;68.68;94546.09;5006125;28;20339;-81
2022/09/05 03:13:21;;;;;;;9.75;5.68;;;;;;;17.65;68.68;94546.41;5005985;28;20026;-80
2022/09/05 03:16:08;;;;;;;9.45;4.65;;;;;;;17.63;68.90;94542.50;5005862;28;20057;-80
2022/09/05 03:18:55;;;;;;;7.65;5.47;;;;;;;17.64;68.65;94549.44;5005750;28;20045;-80
2022/09/05 03:21:46;;;;;;;8.45;4.78;;;;;;;17.62;68.86;94551.69;5006182;28;20256;-80
2022/09/05 03:24:50;;;;;;;8.25;5.03;;;;;;;17.58;68.42;94554.28;5005747;28;20329;-80
2022/09/05 03:27:43;;;;;;;8.80;4.72;;;;;;;17.54;68.67;94553.38;5005565;28;20057;-80
2022/09/05 03:30:14;;;;;;;;;;;;;;;17.49;69.12;94558.25;5005827;28;20078;-81
2022/09/05 03:33:17;;;;;;;12.57;5.80;;;;;;;17.43;69.09;94561.16;5004853;28;20093;-80
2022/09/05 03:36:08;;;;;;;12.20;5.97;;;;;;;17.42;69.30;94556.09;5005534;28;20025;-80
2022/09/05 03:38:51;;;;;;;10.20;6.15;;;;;;;17.44;69.18;94553.84;5005370;28;20034;-80
2022/09/05 03:41:26;;;;;;;10.57;5.43;;;;;;;17.43;69.67;94561.16;5005494;28;20034;-80
2022/09/05 03:44:15;;;;;;;11.60;6.47;;;;;;;17.40;70.15;94569.94;5005371;28;20048;-80
2022/09/05 03:47:09;;;;;;;11.95;7.70;;;;;;;17.41;70.60;94568.81;5020361;28;20153;-80
2022/09/05 03:50:08;;;;;;;9.90;6.65;;;;;;;17.40;70.80;94567.25;5005319;28;20089;-80
2022/09/05 03:53:07;;;;;;;12.10;7.57;;;;;;;17.36;71.00;94571.75;5005113;28;20049;-80
2022/09/05 03:55:44;;;;;;;11.60;8.15;;;;;;;17.33;71.19;94574.31;5005041;28;20339;-81
2022/09/05 03:58:19;;;;;;;19.90;8.75;;;;;;;17.34;71.65;94582.06;5005021;28;20026;-80
2022/09/05 04:01:15;;;;;;;13.13;8.40;;;;;;;17.38;71.27;94580.28;5005023;28;20026;-81
2022/09/05 04:03:49;;;;;;;11.43;8.32;;;;;;;17.44;72.48;94583.50;5004877;28;20526;-81
2022/09/05 04:06:32;;;;;;;11.38;8.07;;;;;;;17.49;73.20;94588.69;5004821;28;20197;-81
2022/09/05 04:09:23;;;;;;;13.30;8.75;;;;;;;17.52;72.88;94592.59;5004919;28;20219;-80
2022/09/05 04:11:56;;;;;;;10.85;8.10;;;;;;;17.55;72.99;94594.63;5004792;28;20042;-80
2022/09/05 04:14:33;;;;;;;18.75;8.95;;;;;;;17.56;73.00;94590.78;5004948;28;20049;-80
2022/09/05 04:17:06;;;;;;;17.73;10.43;;;;;;;17.57;73.60;94589.69;5004933;28;20030;-80
2022/09/05 04:19:40;;;;;;;13.98;8.60;;;;;;;17.57;72.94;94595.06;5004765;28;20045;-80
2022/09/05 04:22:08;;;;;;;11.30;9.13;;;;;;;17.58;71.60;94596.63;5004541;28;20301;-81
2022/09/05 04:25:14;;;;;;;14.00;7.32;;;;;;;17.59;70.64;94607.06;5004666;28;20050;-80
2022/09/05 04:28:01;;;;;;;13.60;7.55;;;;;;;17.59;70.19;94612.47;5004470;28;20049;-80
2022/09/05 04:31:16;;;;;;;9.52;7.22;;;;;;;17.63;70.34;94618.75;5004443;28;20271;-81
2022/09/05 04:34:20;;;;;;;9.68;6.60;;;;;;;17.63;70.02;94617.97;4991386;28;20050;-81
2022/09/05 04:36:57;;;;;;;8.32;6.53;;;;;;;17.66;69.55;94619.97;5002044;28;20120;-80
2022/09/05 04:39:26;;;;;;;9.32;6.35;;;;;;;17.70;69.31;94628.19;5004353;28;20276;-81
2022/09/05 04:42:04;;;;;;;9.70;6.60;;;;;;;17.73;69.31;94633.69;5004477;28;20047;-80
2022/09/05 04:44:36;;;;;;;10.75;6.65;;;;;;;17.78;68.84;94638.84;5003071;28;20053;-81
2022/09/05 04:47:06;;;;;;;;;;;;;;;17.82;68.55;94631.63;5004361;28;20129;-81
2022/09/05 04:49:36;;;;;;;8.52;6.50;;;;;;;17.81;68.65;94634.69;5003986;28;19909;-81
2022/09/05 04:52:20;;;;;;;7.63;6.25;;;;;;;17.83;68.44;94637.88;5004044;28;20089;-81
2022/09/05 04:55:04;;;;;;;12.60;6.63;;;;;;;17.85;68.34;94643.69;5004146;28;20097;-81
2022/09/05 04:58:06;;;;;;;12.10;6.38;;;;;;;17.81;68.50;94651.66;5003826;28;20030;-82
2022/09/05 05:00:56;;;;;;;12.82;7.15;;;;;;;17.82;68.15;94655.91;5004061;28;20025;-81
2022/09/05 05:03:26;;;;;;;12.30;6.90;;;;;;;17.80;68.00;94660.84;5003729;28;20026;-81
2022/09/05 05:05:57;;;;;;;11.00;6.72;;;;;;;17.86;68.21;94660.66;5003574;28;20030;-81
2022/09/05 05:09:00;;;;;;;17.15;6.47;;;;;;;17.99;67.94;94672.97;5003830;28;20089;-81
2022/09/05 05:11:50;;;;;;;9.18;6.13;;;;;;;17.98;67.47;94666.81;5003636;28;20034;-81
2022/09/05 05:14:30;;;;;;;9.63;5.63;;;;;;;18.03;67.46;94671.19;5003625;28;20033;-80
2022/09/05 05:17:13;;;;;;;11.05;5.13;;;;;;;18.11;67.00;94686.44;5003447;28;20031;-81
2022/09/05 05:19:43;;;;;;;;;;;;;;;18.16;66.23;94677.34;5004053;28;20033;-81
2022/09/05 05:22:15;;;;;;;10.60;6.15;;;;;;;18.14;66.31;94680.38;5003820;28;19980;-81
2022/09/05 05:24:51;;;;;;;12.85;5.25;;;;;;;18.17;66.27;94679.69;5003371;28;20206;-81
2022/09/05 05:27:39;;;;;;;6.88;5.13;;;;;;;18.23;66.32;94682.94;5003681;28;20101;-82
2022/09/05 05:30:12;;;;;;;8.98;5.47;;;;;;;18.17;66.05;94682.38;5018414;28;20221;-81
2022/09/05 05:32:45;;;;;;;11.55;5.70;;;;;;;18.21;65.71;94694.06;5003295;28;20033;-82
2022/09/05 05:35:19;;;;;;;8.43;5.38;;;;;;;18.25;65.49;94681.47;5003343;28;20213;-81
2022/09/05 05:37:54;;;;;;;13.10;5.35;;;;;;;18.23;65.52;94689.13;5003253;28;20046;-81
2022/09/05 05:40:30;;;;;;;9.93;6.45;;;;;;;18.32;65.91;94701.69;5003353;28;20072;-81
2022/09/05 05:43:14;;;;;;;16.05;6.43;;;;;;;18.34;65.33;94689.44;5003265;28;20026;-81
2022/09/05 05:45:40;;;;;;;11.55;5.65;;;;;;;18.42;64.60;94688.53;5003013;28;20034;-81
2022/09/05 05:48:10;;;;;;;8.52;6.35;;;;;;;18.53;64.28;94696.13;5002565;28;20033;-81
2022/09/05 05:50:41;;;;;;;11.00;5.63;;;;;;;18.62;63.76;94691.34;5002810;28;20120;-80
2022/09/05 05:53:30;;;;;;;8.80;5.97;;;;;;;18.68;63.92;94692.69;5003348;28;20027;-80
2022/09/05 05:55:58;;;;;;;12.25;5.82;;;;;;;18.83;63.16;94691.22;5002740;28;20037;-81
2022/09/05 05:58:34;;;;;;;15.30;5.65;;;;;;;18.96;63.22;94698.09;5002994;28;20050;-82
2022/09/05 06:01:23;;;;;;;13.27;5.13;;;;;;;19.10;63.32;94691.50;5003043;28;20223;-82
2022/09/05 06:04:07;;;;;;;10.55;5.20;;;;;;;19.22;62.54;94694.91;5003119;28;20022;-82
2022/09/05 06:06:50;;;;;;;12.35;5.88;;;;;;;19.34;61.83;94685.94;5003184;28;20026;-82
2022/09/05 06:09:34;;;;;;;7.05;5.63;;;;;;;19.42;61.07;94703.91;5003056;28;20329;-81
2022/09/05 06:12:16;;;;;;;10.52;5.35;;;;;;;19.47;61.16;94699.38;5002857;28;20033;-82
2022/09/05 06:14:53;;;;;;;13.00;6.68;;;;;;;19.52;60.74;94696.41;5002917;28;20249;-81
2022/09/05 06:17:21;;;;;;;14.00;5.70;;;;;;;19.61;60.53;94699.72;5002986;28;20038;-81
2022/09/05 06:19:59;;;;;;;19.98;5.32;;;;;;;19.65;60.21;94690.56;5003055;28;20089;-82
2022/09/05 06:22:39;;;;;;;6.15;5.10;;;;;;;19.71;59.78;94699.22;5002709;28;20054;-81
2022/09/05 06:25:13;;;;;;;10.27;5.20;;;;;;;19.68;59.91;94699.09;5002750;28;20038;-82
2022/09/05 06:27:59;;;;;;;7.47;4.47;;;;;;;19.67;59.36;94697.56;5002682;28;20097;-82
2022/09/05 06:30:30;;;;;;;6.25;4.18;;;;;;;19.70;59.78;94694.94;5002828;28;20050;-82
2022/09/05 06:33:07;;;;;;;7.30;4.28;;;;;;;19.71;58.77;94701.16;5002804;28;20248;-82
2022/09/05 06:35:55;;;;;;;4.93;3.55;;;;;;;19.68;58.31;94707.22;5002662;28;20026;-82
2022/09/05 06:38:58;;;;;;;8.30;3.38;;;;;;;19.70;57.41;94711.16;5002837;28;20026;-82
2022/09/05 06:41:44;;;;;;;6.72;3.55;;;;;;;19.77;57.72;94713.28;5002192;28;20127;-81
2022/09/05 06:44:48;;;;;;;8.50;3.17;;;;;;;19.88;56.17;94713.50;5002676;28;20030;-82
2022/09/05 06:47:19;;;;;;;8.90;2.70;;;;;;;19.98;55.95;94723.78;5002305;28;20046;-81
2022/09/05 06:50:10;;;;;;;5.03;3.00;;;;;;;20.08;55.85;94725.19;5002613;28;20053;-82
2022/09/05 06:52:48;;;;;;;8.68;3.50;;;;;;;20.13;56.15;94724.91;5002520;28;20042;-81
2022/09/05 06:55:46;;;;;;;6.82;3.63;;;;;;;20.30;55.84;94729.16;5002486;28;20071;-81
2022/09/05 06:58:43;;;;;;;11.20;5.45;;;;;;;20.38;54.76;94731.66;5002400;28;20296;-82
2022/09/05 07:01:10;;;;;;;6.05;4.13;;;;;;;20.46;54.59;94724.47;5001925;28;20034;-81
2022/09/05 07:03:54;;;;;;;12.50;3.97;;;;;;;20.53;54.51;94738.16;5002541;28;20061;-81
2022/09/05 07:06:36;;;;;;;8.73;4.43;;;;;;;20.52;54.41;94730.41;5002540;28;20217;-82
2022/09/05 07:09:15;;;;;;;5.10;3.77;;;;;;;20.54;54.05;94728.13;5004841;28;20026;-82
2022/09/05 07:11:58;;;;;;;7.25;4.15;;;;;;;20.61;54.59;94728.28;5006375;28;20322;-81
2022/09/05 07:14:55;;;;;;;7.25;3.58;;;;;;;20.71;54.37;94721.53;5006213;28;20034;-82
2022/09/05 07:17:37;;;;;;;5.88;3.70;;;;;;;20.83;53.46;94714.03;5005865;28;20050;-81
2022/09/05 07:20:22;;;;;;;6.57;3.40;;;;;;;20.87;52.76;94711.38;5006030;28;20026;-81
2022/09/05 07:22:53;;;;;;;11.27;3.70;;;;;;;20.77;52.82;94720.09;5006083;28;20037;-81
2022/09/05 07:25:25;;;;;;;7.77;3.67;;;;;;;20.82;52.42;94720.59;5021246;28;20049;-81
2022/09/05 07:27:57;;;;;;;6.47;3.28;;;;;;;20.89;51.01;94722.66;5006001;28;20337;-81
2022/09/05 07:30:22;;;;;;;4.10;2.85;;;;;;;20.93;50.10;94715.38;5005812;28;20030;-81
2022/09/05 07:32:52;;;;;;;3.78;2.22;;;;;;;20.92;49.86;94715.72;5005808;28;20026;-81
2022/09/05 07:35:23;;;;;;;5.40;2.97;;;;;;;20.76;50.03;94718.50;5005810;28;20030;-81
2022/09/05 07:38:03;;;;;;;9.98;3.50;;;;;;;20.64;51.06;94709.41;5005659;28;20026;-81
2022/09/05 07:40:33;;;;;;;4.70;3.10;;;;;;;20.64;50.92;94709.41;5005603;28;20029;-82
2022/09/05 07:43:14;;;;;;;6.30;2.63;;;;;;;20.71;50.67;94713.41;5005643;28;20252;-82
2022/09/05 07:45:48;;;;;;;5.13;2.40;;;;;;;20.70;50.49;94707.19;5005402;28;20030;-81
2022/09/05 07:48:21;;;;;;;4.05;2.97;;;;;;;20.71;50.83;94707.97;5005378;28;20197;-82
2022/09/05 07:50:56;;;;;;;5.03;2.67;;;;;;;20.73;50.66;94702.97;5005403;28;20022;-81
2022/09/05 07:53:24;;;;;;;6.72;3.03;;;;;;;20.76;50.76;94707.66;5005436;28;20022;-81
2022/09/05 07:55:57;;;;;;;4.22;2.58;;;;;;;20.73;49.67;94711.88;5005457;28;20106;-81
2022/09/05 07:58:42;;;;;;;4.60;2.83;;;;;;;20.79;50.51;94718.59;5005240;28;20029;-81
2022/09/05 08:01:13;;;;;;;3.60;2.42;;;;;;;20.74;49.76;94710.75;5005303;28;20022;-82
2022/09/05 08:03:41;;;;;;;4.82;2.97;;;;;;;20.73;50.72;94711.13;5005066;28;20022;-82
2022/09/05 08:06:17;;;;;;;4.82;2.80;;;;;;;20.83;50.50;94719.44;5005118;28;20026;-82
2022/09/05 08:09:04;;;;;;;6.13;3.13;;;;;;;20.88;50.58;94715.66;5005010;28;20023;-82
2022/09/05 08:11:32;;;;;;;3.75;2.63;;;;;;;20.77;50.03;94714.69;5005195;28;20034;-82
2022/09/05 08:14:06;;;;;;;5.75;3.10;;;;;;;20.76;50.59;94724.72;5005029;28;20081;-81
2022/09/05 08:16:33;;;;;;;9.07;2.38;;;;;;;20.87;50.66;94714.09;5004786;28;20030;-82
2022/09/05 08:19:11;;;;;;;4.20;2.72;;;;;;;20.79;48.55;94715.09;5004511;28;20018;-82
2022/09/05 08:21:47;;;;;;;3.50;2.20;;;;;;;20.88;48.99;94712.94;5004751;28;20029;-82
2022/09/05 08:24:25;;;;;;;7.38;2.75;;;;;;;20.93;49.09;94711.88;5003840;28;20037;-82
2022/09/05 08:27:03;;;;;;;3.03;2.00;;;;;;;20.89;48.40;94719.94;5004670;28;20018;-82
2022/09/05 08:29:35;;;;;;;3.55;2.22;;;;;;;20.99;48.80;94716.66;5004657;28;20037;-81
2022/09/05 08:32:21;;;;;;;3.97;2.60;;;;;;;21.10;48.30;94719.56;5004566;28;20089;-81
2022/09/05 08:34:51;;;;;;;4.13;2.63;;;;;;;21.24;48.28;94727.16;5004847;28;20022;-82
2022/09/05 08:37:21;;;;;;;5.93;2.80;;;;;;;21.21;49.64;94708.94;5004438;28;20026;-82
2022/09/05 08:39:51;;;;;;;5.90;3.20;;;;;;;21.29;49.37;94716.03;5004528;28;20022;-82
2022/09/05 08:42:28;;;;;;;6.40;3.65;;;;;;;21.25;48.32;94723.34;5004428;28;20308;-80
2022/09/05 08:45:21;;;;;;;4.95;2.60;;;;;;;21.09;48.47;94714.50;5004276;28;20026;-81
2022/09/05 08:47:53;;;;;;;5.70;2.80;;;;;;;20.94;49.21;94714.22;5004203;28;20054;-82
2022/09/05 08:50:50;;;;;;;7.13;2.95;;;;;;;20.85;50.34;94716.38;5004294;28;20022;-82
2022/09/05 08:53:37;;;;;;;8.48;3.65;;;;;;;20.77;49.51;94714.69;5001349;28;20053;-81
2022/09/05 08:56:12;;;;;;;4.15;2.70;;;;;;;20.92;50.78;94713.03;5004219;28;20097;-82
2022/09/05 08:58:58;;;;;;;4.43;2.78;;;;;;;21.08;47.98;94713.72;5003904;28;20034;-82
2022/09/05 09:01:32;;;;;;;4.85;2.70;;;;;;;21.17;48.07;94718.91;5003997;28;20030;-82
2022/09/05 09:04:35;;;;;;;3.55;2.45;;;;;;;21.37;46.37;94716.94;5004306;28;20255;-82
2022/09/05 09:07:09;;;;;;;6.45;2.97;;;;;;;21.39;45.68;94717.34;5003839;28;20041;-82
2022/09/05 09:09:56;;;;;;;4.20;2.72;;;;;;;21.59;46.00;94718.09;5003894;28;20275;-82
2022/09/05 09:12:37;;;;;;;3.58;2.30;;;;;;;21.72;45.27;94713.31;5003954;28;20325;-82
2022/09/05 09:15:23;;;;;;;3.50;2.67;;;;;;;21.68;44.88;94717.88;5004009;28;20256;-82
2022/09/05 09:17:51;;;;;;;4.97;2.67;;;;;;;21.62;45.08;94720.13;5003960;28;20022;-82
2022/09/05 09:20:23;;;;;;;5.50;2.50;;;;;;;21.70;45.92;94712.88;5003892;28;20061;-82
2022/09/05 09:22:58;;;;;;;4.18;2.20;;;;;;;21.76;45.21;94719.56;5003819;28;20030;-82
2022/09/05 09:25:31;;;;;;;6.38;2.75;;;;;;;21.78;44.92;94718.06;5003843;28;20102;-81
2022/09/05 09:28:21;;;;;;;3.75;2.20;;;;;;;21.58;45.41;94720.03;5003601;28;20033;-82
2022/09/05 09:30:58;;;;;;;7.80;2.45;;;;;;;21.48;45.15;94720.66;5003380;28;20153;-82
2022/09/05 09:33:47;;;;;;;4.22;2.78;;;;;;;21.53;45.89;94712.19;5003310;28;20198;-82
2022/09/05 09:36:36;;;;;;;3.67;2.38;;;;;;;21.60;45.19;94716.97;5003525;28;20022;-82
2022/09/05 09:39:19;;;;;;;4.03;2.85;;;;;;;21.70;47.78;94723.72;5003548;28;20046;-82
2022/09/05 09:41:55;;;;;;;5.47;2.53;;;;;;;21.68;46.42;94718.66;5003158;28;20030;-83
2022/09/05 09:44:59;;;;;;;6.50;2.70;;;;;;;21.60;44.10;94716.97;5003596;28;20030;-82
2022/09/05 09:47:44;;;;;;;3.72;2.60;;;;;;;21.49;44.28;94705.94;5003190;28;20329;-82
2022/09/05 09:50:30;;;;;;;4.63;3.03;;;;;;;21.48;45.04;94714.44;5003283;28;20152;-82
2022/09/05 09:53:14;;;;;;;3.17;2.05;;;;;;;21.52;46.43;94697.09;5003366;28;20026;-82
2022/09/05 09:55:48;;;;;;;5.88;2.67;;;;;;;21.61;46.71;94696.84;5003193;28;20028;-81
2022/09/05 09:58:42;;;;;;;3.33;1.80;;;;;;;21.72;45.40;94700.50;5003228;28;20273;-81
2022/09/05 10:01:16;;;;;;;4.90;2.50;;;;;;;21.78;44.52;94688.19;5003223;28;20068;-81
2022/09/05 10:04:16;;;;;;;4.85;3.40;;;;;;;21.91;43.76;94690.72;5003183;28;20034;-82
2022/09/05 10:07:09;;;;;;;5.25;2.10;;;;;;;21.98;43.30;94674.53;5002987;28;20045;-81
2022/09/05 10:10:29;;;;;;;5.78;2.95;;;;;;;22.12;43.59;94682.88;5018287;28;20022;-82
2022/09/05 10:13:15;;;;;;;4.78;2.38;;;;;;;22.04;41.82;94678.47;4962318;28;20034;-82
2022/09/05 10:16:08;;;;;;;3.58;2.30;;;;;;;22.22;41.73;94670.59;4962544;28;20035;-82
2022/09/05 10:18:55;;;;;;;3.67;2.30;;;;;;;22.29;42.78;94670.72;4994233;28;20101;-81
2022/09/05 10:21:39;;;;;;;7.57;2.22;;;;;;;22.32;42.95;94669.19;5003181;28;20024;-82
2022/09/05 10:24:15;;;;;;;4.07;2.70;;;;;;;22.47;40.52;94667.44;5002891;28;20033;-82
2022/09/05 10:26:56;;;;;;;4.93;2.70;;;;;;;22.58;42.66;94661.00;5003038;28;20023;-82
2022/09/05 10:29:46;;;;;;;4.97;2.60;;;;;;;22.79;42.80;94660.44;5002900;28;20093;-81
2022/09/05 10:32:22;;;;;;;4.03;2.38;;;;;;;22.93;40.91;94662.53;5002960;28;20034;-81
2022/09/05 10:34:58;;;;;;;5.63;2.33;;;;;;;23.05;40.98;94660.75;5002904;28;20026;-81
2022/09/05 10:37:40;;;;;;;4.15;2.58;;;;;;;23.18;39.98;94651.16;5002670;28;20399;-82
2022/09/05 10:40:11;;;;;;;4.55;2.33;;;;;;;23.30;40.83;94650.09;5002805;28;20032;-82
2022/09/05 10:43:08;;;;;;;3.47;2.30;;;;;;;23.49;39.37;94644.47;5002787;28;20030;-82
2022/09/05 10:45:55;;;;;;;3.63;2.00;;;;;;;23.61;40.11;94640.63;5006610;28;20041;-81
2022/09/05 10:48:24;;;;;;;8.85;1.90;;;;;;;23.73;38.97;94648.53;5006782;28;20092;-81
2022/09/05 10:51:00;;;;;;;4.05;2.35;;;;;;;23.82;38.38;94651.72;5006445;28;20030;-81
2022/09/05 10:54:03;;;;;;;8.02;2.10;;;;;;;23.86;36.75;94643.59;5006394;28;20034;-81
2022/09/05 10:56:38;;;;;;;3.78;1.63;;;;;;;23.92;38.20;94655.69;5006447;28;20041;-81
2022/09/05 10:59:18;;;;;;;4.55;1.83;;;;;;;23.94;38.29;94649.84;5006205;28;20030;-81
2022/09/05 11:01:48;;;;;;;4.20;2.38;;;;;;;24.05;38.60;94649.91;5006376;28;20018;-81
2022/09/05 11:04:35;;;;;;;5.55;1.92;;;;;;;23.94;38.26;94647.13;5005957;28;20038;-81
2022/09/05 11:07:14;;;;;;;9.32;2.42;;;;;;;24.27;38.56;94645.38;5006155;28;20113;-82
2022/09/05 11:10:00;;;;;;;6.05;2.58;;;;;;;24.46;38.15;94641.56;5006159;28;20097;-81
2022/09/05 11:12:26;;;;;;;3.97;2.08;;;;;;;24.70;38.37;94640.91;5006059;28;20101;-82
2022/09/05 11:14:55;;;;;;;5.05;1.98;;;;;;;24.90;37.08;94641.34;5006319;28;20038;-82
2022/09/05 11:17:23;;;;;;;4.18;2.53;;;;;;;25.00;36.89;94643.31;5006049;28;20034;-81
2022/09/05 11:20:12;;;;;;;5.45;2.40;;;;;;;25.20;36.49;94638.28;5006003;28;20034;-82
2022/09/05 11:22:45;;;;;;;3.58;2.42;;;;;;;25.23;35.06;94623.91;5000548;28;20121;-82
2022/09/05 11:25:19;;;;;;;4.10;2.05;;;;;;;25.33;36.58;94632.50;5006012;28;20217;-82
2022/09/05 11:27:48;;;;;;;2.47;1.67;;;;;;;25.34;34.64;94632.09;5005746;28;20049;-82
2022/09/05 11:30:32;;;;;;;3.55;2.30;;;;;;;25.27;35.77;94625.84;5006154;28;20030;-82
2022/09/05 11:33:28;;;;;;;3.95;2.40;;;;;;;25.10;35.16;94619.97;5005746;28;20093;-81
2022/09/05 11:36:02;;;;;;;8.27;2.30;;;;;;;25.01;35.96;94617.63;5005817;28;20150;-81
2022/09/05 11:38:48;;;;;;;6.50;2.53;;;;;;;25.16;37.13;94623.09;5005712;28;20253;-82
2022/09/05 11:41:22;;;;;;;7.57;2.63;;;;;;;25.33;36.08;94627.81;5005901;28;20018;-82
2022/09/05 11:43:54;;;;;;;4.18;2.33;;;;;;;25.43;36.08;94623.53;5005827;28;20085;-83
2022/09/05 11:46:25;;;;;;;2.77;1.90;;;;;;;25.54;34.89;94621.56;5005506;28;20118;-82
2022/09/05 11:49:12;;;;;;;6.95;2.17;;;;;;;25.63;35.16;94607.53;5005789;28;20093;-82
2022/09/05 11:52:15;;;;;;;5.20;2.30;;;;;;;25.70;35.18;94615.72;5005424;28;20228;-82
2022/09/05 11:55:06;;;;;;;4.97;2.72;;;;;;;25.70;35.11;94615.72;5005034;28;20376;-80
2022/09/05 11:58:09;;;;;;;5.25;2.30;;;;;;;25.59;34.34;94609.50;5005219;28;20228;-82
2022/09/05 12:00:40;;;;;;;3.50;2.40;;;;;;;25.50;35.02;94604.41;5005338;28;20081;-82
2022/09/05 12:03:36;;;;;;;9.77;2.30;;;;;;;25.49;36.96;94610.28;5005240;28;20033;-82
2022/09/05 12:06:06;;;;;;;4.45;2.05;;;;;;;25.42;36.35;94602.84;5005378;28;20049;-82
2022/09/05 12:08:38;;;;;;;4.72;2.30;;;;;;;25.37;34.99;94606.75;5005108;28;20222;-82
2022/09/05 12:11:48;;;;;;;3.20;2.17;;;;;;;25.43;34.43;94597.00;5005279;28;20026;-82
2022/09/05 12:14:31;;;;;;;9.15;1.88;;;;;;;25.47;35.75;94598.97;4994806;28;20324;-82
2022/09/05 12:17:03;;;;;;;6.28;2.47;;;;;;;25.49;34.99;94597.41;5004779;28;20030;-82
2022/09/05 12:19:55;;;;;;;4.60;2.17;;;;;;;25.18;35.14;94586.06;5005010;28;20026;-82
2022/09/05 12:22:20;;;;;;;;;;;;;;;24.86;35.50;94583.31;5005444;28;20371;-82
2022/09/05 12:25:02;;;;;;;5.57;2.30;;;;;;;24.74;36.29;94592.63;5005024;28;19933;-82
2022/09/05 12:27:35;;;;;;;3.92;2.38;;;;;;;24.89;35.26;94593.44;5004836;28;20015;-82
2022/09/05 12:30:10;;;;;;;5.63;2.28;;;;;;;25.04;35.62;94594.25;5004681;28;20026;-82
2022/09/05 12:33:04;;;;;;;3.80;2.40;;;;;;;25.22;34.86;94591.56;5004781;28;20022;-82
2022/09/05 12:35:41;;;;;;;7.55;2.95;;;;;;;25.34;35.02;94591.19;5004832;28;20022;-82
2022/09/05 12:38:34;;;;;;;2.95;1.90;;;;;;;25.30;34.62;94595.84;5004557;28;20253;-82
2022/09/05 12:41:19;;;;;;;6.90;2.53;;;;;;;25.40;34.80;94588.81;5004690;28;20038;-82